sensor_id;sensor_type;location;lat;lon;timestamp;pressure;altitude;pressure_sealevel;temperature;humidity
20628;BME280;10473;42.734;24.258;2022-07-11T00:00:26;91832.22;;;16.57;59.82
20628;BME280;10473;42.734;24.258;2022-07-11T00:02:53;91843.19;;;16.66;60.67
20628;BME280;10473;42.734;24.258;2022-07-11T00:05:21;91848.19;;;16.64;60.82
20628;BME280;10473;42.734;24.258;2022-07-11T00:07:49;91837.34;;;16.74;61.05
20628;BME280;10473;42.734;24.258;2022-07-11T00:10:17;91844.16;;;16.79;59.14
20628;BME280;10473;42.734;24.258;2022-07-11T00:12:46;91866.22;;;16.86;59.06
20628;BME280;10473;42.734;24.258;2022-07-11T00:15:13;91858.50;;;16.92;59.00
20628;BME280;10473;42.734;24.258;2022-07-11T00:17:41;91849.38;;;16.89;60.36
20628;BME280;10473;42.734;24.258;2022-07-11T00:20:10;91843.84;;;17.00;59.59
20628;BME280;10473;42.734;24.258;2022-07-11T00:22:38;91848.25;;;17.10;57.96
20628;BME280;10473;42.734;24.258;2022-07-11T00:25:06;91851.47;;;17.01;59.31
20628;BME280;10473;42.734;24.258;2022-07-11T00:27:34;91857.34;;;17.16;60.80
20628;BME280;10473;42.734;24.258;2022-07-11T00:30:04;91863.81;;;17.18;60.08
20628;BME280;10473;42.734;24.258;2022-07-11T00:32:32;91856.41;;;17.26;59.20
20628;BME280;10473;42.734;24.258;2022-07-11T00:35:00;91849.56;;;17.25;59.92
20628;BME280;10473;42.734;24.258;2022-07-11T00:37:28;91852.47;;;17.34;57.89
20628;BME280;10473;42.734;24.258;2022-07-11T00:39:55;91847.13;;;17.34;58.00
20628;BME280;10473;42.734;24.258;2022-07-11T00:42:25;91854.81;;;17.32;57.40
20628;BME280;10473;42.734;24.258;2022-07-11T00:44:53;91844.25;;;17.21;59.15
20628;BME280;10473;42.734;24.258;2022-07-11T00:47:22;91845.50;;;17.17;59.19
20628;BME280;10473;42.734;24.258;2022-07-11T00:49:50;91845.25;;;17.08;60.29
20628;BME280;10473;42.734;24.258;2022-07-11T00:52:18;91835.22;;;16.89;61.51
20628;BME280;10473;42.734;24.258;2022-07-11T00:54:46;91841.94;;;16.74;60.95
20628;BME280;10473;42.734;24.258;2022-07-11T00:57:14;91836.69;;;16.67;59.84
20628;BME280;10473;42.734;24.258;2022-07-11T00:59:42;91837.13;;;16.62;62.20
20628;BME280;10473;42.734;24.258;2022-07-11T01:02:10;91843.63;;;16.61;60.85
20628;BME280;10473;42.734;24.258;2022-07-11T01:04:39;91840.69;;;16.52;59.85
20628;BME280;10473;42.734;24.258;2022-07-11T01:07:07;91836.59;;;16.44;61.03
20628;BME280;10473;42.734;24.258;2022-07-11T01:09:34;91845.50;;;16.34;60.95
20628;BME280;10473;42.734;24.258;2022-07-11T01:12:04;91846.34;;;16.27;60.76
20628;BME280;10473;42.734;24.258;2022-07-11T01:14:32;91835.84;;;16.10;62.34
20628;BME280;10473;42.734;24.258;2022-07-11T01:17:00;91848.16;;;16.04;60.28
20628;BME280;10473;42.734;24.258;2022-07-11T01:19:28;91848.09;;;16.07;60.17
20628;BME280;10473;42.734;24.258;2022-07-11T01:21:58;91846.66;;;15.99;60.78
20628;BME280;10473;42.734;24.258;2022-07-11T01:24:31;91843.59;;;16.01;61.10
20628;BME280;10473;42.734;24.258;2022-07-11T01:27:01;91848.53;;;16.02;61.37
20628;BME280;10473;42.734;24.258;2022-07-11T01:29:29;91854.56;;;16.10;61.07
20628;BME280;10473;42.734;24.258;2022-07-11T01:31:59;91848.84;;;16.11;61.88
20628;BME280;10473;42.734;24.258;2022-07-11T01:34:27;91832.91;;;16.01;60.87
20628;BME280;10473;42.734;24.258;2022-07-11T01:36:55;91836.38;;;15.98;61.09
20628;BME280;10473;42.734;24.258;2022-07-11T01:39:23;91836.50;;;15.87;60.59
20628;BME280;10473;42.734;24.258;2022-07-11T01:41:52;91843.34;;;15.88;60.73
20628;BME280;10473;42.734;24.258;2022-07-11T01:44:23;91838.78;;;15.89;58.54
20628;BME280;10473;42.734;24.258;2022-07-11T01:46:51;91833.88;;;15.84;58.05
20628;BME280;10473;42.734;24.258;2022-07-11T01:49:19;91837.63;;;15.90;59.51
20628;BME280;10473;42.734;24.258;2022-07-11T01:51:50;91837.66;;;15.86;57.43
20628;BME280;10473;42.734;24.258;2022-07-11T01:54:20;91834.13;;;15.93;56.96
20628;BME280;10473;42.734;24.258;2022-07-11T01:56:48;91828.00;;;15.96;58.25
20628;BME280;10473;42.734;24.258;2022-07-11T01:59:17;91829.50;;;15.97;56.50
20628;BME280;10473;42.734;24.258;2022-07-11T02:01:45;91837.91;;;15.95;56.93
20628;BME280;10473;42.734;24.258;2022-07-11T02:04:13;91824.59;;;15.92;55.42
20628;BME280;10473;42.734;24.258;2022-07-11T02:06:40;91824.53;;;15.99;55.97
20628;BME280;10473;42.734;24.258;2022-07-11T02:09:11;91819.50;;;16.04;55.53
20628;BME280;10473;42.734;24.258;2022-07-11T02:11:39;91806.97;;;15.98;57.16
20628;BME280;10473;42.734;24.258;2022-07-11T02:14:10;91818.38;;;16.05;54.89
20628;BME280;10473;42.734;24.258;2022-07-11T02:16:39;91813.75;;;16.06;54.45
20628;BME280;10473;42.734;24.258;2022-07-11T02:19:07;91797.38;;;16.04;54.22
20628;BME280;10473;42.734;24.258;2022-07-11T02:21:36;91813.75;;;16.06;54.78
20628;BME280;10473;42.734;24.258;2022-07-11T02:24:05;91813.84;;;15.99;55.50
20628;BME280;10473;42.734;24.258;2022-07-11T02:26:33;91810.75;;;16.04;55.64
20628;BME280;10473;42.734;24.258;2022-07-11T02:29:01;91811.63;;;15.90;54.91
20628;BME280;10473;42.734;24.258;2022-07-11T02:31:29;91814.34;;;15.87;56.13
20628;BME280;10473;42.734;24.258;2022-07-11T02:33:58;91814.25;;;15.97;56.37
20628;BME280;10473;42.734;24.258;2022-07-11T02:36:26;91802.78;;;15.63;55.96
20628;BME280;10473;42.734;24.258;2022-07-11T02:38:54;91801.63;;;15.24;58.91
20628;BME280;10473;42.734;24.258;2022-07-11T02:41:21;91804.63;;;15.36;59.74
20628;BME280;10473;42.734;24.258;2022-07-11T02:43:51;91790.50;;;15.29;60.34
20628;BME280;10473;42.734;24.258;2022-07-11T02:46:19;91807.72;;;15.24;61.19
20628;BME280;10473;42.734;24.258;2022-07-11T02:48:48;91805.22;;;15.07;61.44
20628;BME280;10473;42.734;24.258;2022-07-11T02:51:19;91808.38;;;14.91;62.19
20628;BME280;10473;42.734;24.258;2022-07-11T02:53:50;91812.81;;;14.57;62.62
20628;BME280;10473;42.734;24.258;2022-07-11T02:56:19;91827.50;;;14.83;63.14
20628;BME280;10473;42.734;24.258;2022-07-11T02:58:48;91818.88;;;14.65;63.77
20628;BME280;10473;42.734;24.258;2022-07-11T03:01:16;91823.06;;;14.66;63.78
20628;BME280;10473;42.734;24.258;2022-07-11T03:03:45;91826.84;;;14.72;65.06
20628;BME280;10473;42.734;24.258;2022-07-11T03:06:13;91850.06;;;14.71;64.70
20628;BME280;10473;42.734;24.258;2022-07-11T03:08:42;91832.56;;;14.70;65.71
20628;BME280;10473;42.734;24.258;2022-07-11T03:11:10;91838.59;;;14.78;63.92
20628;BME280;10473;42.734;24.258;2022-07-11T03:13:39;91836.31;;;14.76;65.46
20628;BME280;10473;42.734;24.258;2022-07-11T03:16:07;91833.34;;;14.64;64.28
20628;BME280;10473;42.734;24.258;2022-07-11T03:18:35;91840.25;;;14.58;66.18
20628;BME280;10473;42.734;24.258;2022-07-11T03:21:03;91830.41;;;14.48;66.13
20628;BME280;10473;42.734;24.258;2022-07-11T03:23:30;91848.63;;;14.60;64.08
20628;BME280;10473;42.734;24.258;2022-07-11T03:26:00;91852.50;;;14.45;65.01
20628;BME280;10473;42.734;24.258;2022-07-11T03:28:29;91866.94;;;14.54;64.38
20628;BME280;10473;42.734;24.258;2022-07-11T03:30:57;91865.84;;;14.45;64.57
20628;BME280;10473;42.734;24.258;2022-07-11T03:33:25;91863.59;;;14.43;63.73
20628;BME280;10473;42.734;24.258;2022-07-11T03:36:00;91844.97;;;14.33;63.97
20628;BME280;10473;42.734;24.258;2022-07-11T03:38:29;91846.81;;;14.43;64.33
20628;BME280;10473;42.734;24.258;2022-07-11T03:40:57;91869.28;;;14.45;63.48
20628;BME280;10473;42.734;24.258;2022-07-11T03:43:40;91862.44;;;14.44;64.06
20628;BME280;10473;42.734;24.258;2022-07-11T03:46:08;91859.34;;;14.53;63.49
20628;BME280;10473;42.734;24.258;2022-07-11T03:48:38;91872.31;;;14.47;63.50
20628;BME280;10473;42.734;24.258;2022-07-11T03:51:06;91860.50;;;14.52;63.92
20628;BME280;10473;42.734;24.258;2022-07-11T03:53:34;91846.03;;;14.49;64.05
20628;BME280;10473;42.734;24.258;2022-07-11T03:56:05;91873.59;;;14.87;62.84
20628;BME280;10473;42.734;24.258;2022-07-11T03:58:33;91881.25;;;14.85;64.84
20628;BME280;10473;42.734;24.258;2022-07-11T04:01:03;91889.84;;;15.06;62.00
20628;BME280;10473;42.734;24.258;2022-07-11T04:03:31;91883.72;;;15.09;62.83
20628;BME280;10473;42.734;24.258;2022-07-11T04:05:59;91898.84;;;15.30;62.14
20628;BME280;10473;42.734;24.258;2022-07-11T04:08:26;91869.72;;;14.98;60.61
20628;BME280;10473;42.734;24.258;2022-07-11T04:10:54;91856.81;;;14.90;61.18
20628;BME280;10473;42.734;24.258;2022-07-11T04:13:22;91884.38;;;15.24;59.85
20628;BME280;10473;42.734;24.258;2022-07-11T04:15:50;91907.41;;;15.58;59.88
20628;BME280;10473;42.734;24.258;2022-07-11T04:18:19;91894.22;;;15.81;59.18
20628;BME280;10473;42.734;24.258;2022-07-11T04:20:46;91903.25;;;15.91;59.02
20628;BME280;10473;42.734;24.258;2022-07-11T04:23:15;91896.13;;;16.18;59.40
20628;BME280;10473;42.734;24.258;2022-07-11T04:25:43;91900.78;;;16.07;56.94
20628;BME280;10473;42.734;24.258;2022-07-11T04:28:11;91904.63;;;16.43;58.37
20628;BME280;10473;42.734;24.258;2022-07-11T04:30:39;91908.66;;;16.58;58.79
20628;BME280;10473;42.734;24.258;2022-07-11T04:33:06;91917.88;;;17.10;56.67
20628;BME280;10473;42.734;24.258;2022-07-11T04:35:36;91915.41;;;17.49;54.56
20628;BME280;10473;42.734;24.258;2022-07-11T04:38:03;91882.31;;;17.59;54.08
20628;BME280;10473;42.734;24.258;2022-07-11T04:40:32;91905.06;;;17.51;52.70
20628;BME280;10473;42.734;24.258;2022-07-11T04:43:00;91930.03;;;18.13;55.48
20628;BME280;10473;42.734;24.258;2022-07-11T04:45:28;91899.03;;;18.32;54.82
20628;BME280;10473;42.734;24.258;2022-07-11T04:47:56;91938.00;;;18.79;53.02
20628;BME280;10473;42.734;24.258;2022-07-11T04:50:25;91917.38;;;18.92;51.01
20628;BME280;10473;42.734;24.258;2022-07-11T04:52:57;91937.59;;;19.16;53.62
20628;BME280;10473;42.734;24.258;2022-07-11T04:55:25;91945.09;;;19.24;50.05
20628;BME280;10473;42.734;24.258;2022-07-11T04:57:53;91942.53;;;19.37;50.62
20628;BME280;10473;42.734;24.258;2022-07-11T05:00:20;91950.25;;;19.35;50.09
20628;BME280;10473;42.734;24.258;2022-07-11T05:02:48;91947.84;;;19.56;50.92
20628;BME280;10473;42.734;24.258;2022-07-11T05:05:16;91952.31;;;19.63;49.45
20628;BME280;10473;42.734;24.258;2022-07-11T05:07:45;91943.25;;;19.73;48.70
20628;BME280;10473;42.734;24.258;2022-07-11T05:10:15;91918.88;;;19.48;48.41
20628;BME280;10473;42.734;24.258;2022-07-11T05:12:42;91941.06;;;19.84;49.45
20628;BME280;10473;42.734;24.258;2022-07-11T05:15:10;91940.88;;;19.59;49.31
20628;BME280;10473;42.734;24.258;2022-07-11T05:17:38;91941.13;;;19.96;53.72
20628;BME280;10473;42.734;24.258;2022-07-11T05:20:08;91942.72;;;19.94;48.57
20628;BME280;10473;42.734;24.258;2022-07-11T05:22:36;91954.66;;;20.25;49.34
20628;BME280;10473;42.734;24.258;2022-07-11T05:25:04;91934.31;;;20.24;49.94
20628;BME280;10473;42.734;24.258;2022-07-11T05:27:34;91923.28;;;20.18;49.07
20628;BME280;10473;42.734;24.258;2022-07-11T05:30:02;91941.88;;;20.29;52.13
20628;BME280;10473;42.734;24.258;2022-07-11T05:32:29;91946.66;;;20.05;49.48
20628;BME280;10473;42.734;24.258;2022-07-11T05:34:57;91939.59;;;19.47;48.55
20628;BME280;10473;42.734;24.258;2022-07-11T05:37:28;91937.09;;;19.21;49.83
20628;BME280;10473;42.734;24.258;2022-07-11T05:39:56;91939.47;;;19.19;50.69
20628;BME280;10473;42.734;24.258;2022-07-11T05:42:24;91932.28;;;19.32;50.24
20628;BME280;10473;42.734;24.258;2022-07-11T05:44:53;91923.22;;;19.06;49.51
20628;BME280;10473;42.734;24.258;2022-07-11T05:47:21;91915.38;;;18.41;50.38
20628;BME280;10473;42.734;24.258;2022-07-11T05:49:52;91951.41;;;18.17;52.26
20628;BME280;10473;42.734;24.258;2022-07-11T05:52:22;91938.94;;;18.07;53.17
20628;BME280;10473;42.734;24.258;2022-07-11T05:54:50;91941.59;;;17.64;52.84
20628;BME280;10473;42.734;24.258;2022-07-11T05:57:18;91958.53;;;17.58;53.24
20628;BME280;10473;42.734;24.258;2022-07-11T05:59:46;91962.84;;;17.75;53.14
20628;BME280;10473;42.734;24.258;2022-07-11T06:02:19;91961.22;;;17.81;52.58
20628;BME280;10473;42.734;24.258;2022-07-11T06:04:49;91949.69;;;17.84;54.57
20628;BME280;10473;42.734;24.258;2022-07-11T06:07:23;91955.69;;;17.91;53.47
20628;BME280;10473;42.734;24.258;2022-07-11T06:10:08;91965.53;;;17.98;52.37
20628;BME280;10473;42.734;24.258;2022-07-11T06:12:36;91972.31;;;18.06;54.14
20628;BME280;10473;42.734;24.258;2022-07-11T06:15:05;91968.44;;;18.07;52.64
20628;BME280;10473;42.734;24.258;2022-07-11T06:17:45;91977.00;;;18.21;53.53
20628;BME280;10473;42.734;24.258;2022-07-11T06:20:17;91977.63;;;18.29;52.46
20628;BME280;10473;42.734;24.258;2022-07-11T06:22:45;91986.84;;;18.51;52.39
20628;BME280;10473;42.734;24.258;2022-07-11T06:25:25;91977.56;;;18.55;54.22
20628;BME280;10473;42.734;24.258;2022-07-11T06:27:53;91980.66;;;18.93;50.31
20628;BME280;10473;42.734;24.258;2022-07-11T06:30:21;91980.91;;;19.37;52.07
20628;BME280;10473;42.734;24.258;2022-07-11T06:32:50;91988.28;;;19.69;48.61
20628;BME280;10473;42.734;24.258;2022-07-11T06:35:18;91990.81;;;19.92;50.05
20628;BME280;10473;42.734;24.258;2022-07-11T06:37:45;91977.19;;;20.31;53.77
20628;BME280;10473;42.734;24.258;2022-07-11T06:40:13;91986.59;;;20.67;49.76
20628;BME280;10473;42.734;24.258;2022-07-11T06:42:43;91960.38;;;20.84;46.71
20628;BME280;10473;42.734;24.258;2022-07-11T06:45:11;91973.22;;;21.08;46.26
20628;BME280;10473;42.734;24.258;2022-07-11T06:47:39;91979.25;;;21.12;45.71
20628;BME280;10473;42.734;24.258;2022-07-11T06:50:09;91974.59;;;21.13;46.21
20628;BME280;10473;42.734;24.258;2022-07-11T06:52:37;91979.47;;;21.18;48.46
20628;BME280;10473;42.734;24.258;2022-07-11T06:55:05;91967.81;;;21.08;45.72
20628;BME280;10473;42.734;24.258;2022-07-11T06:57:33;91995.38;;;21.41;44.19
20628;BME280;10473;42.734;24.258;2022-07-11T07:00:01;91989.75;;;21.48;42.60
20628;BME280;10473;42.734;24.258;2022-07-11T07:02:29;91988.94;;;21.76;43.55
20628;BME280;10473;42.734;24.258;2022-07-11T07:04:57;91999.84;;;21.72;45.72
20628;BME280;10473;42.734;24.258;2022-07-11T07:07:26;91995.00;;;21.80;46.11
20628;BME280;10473;42.734;24.258;2022-07-11T07:09:55;91999.09;;;21.97;46.28
20628;BME280;10473;42.734;24.258;2022-07-11T07:12:23;91990.03;;;21.78;41.10
20628;BME280;10473;42.734;24.258;2022-07-11T07:14:51;92000.03;;;22.03;44.41
20628;BME280;10473;42.734;24.258;2022-07-11T07:17:19;91992.59;;;21.82;41.25
20628;BME280;10473;42.734;24.258;2022-07-11T07:19:49;91995.69;;;21.68;42.34
20628;BME280;10473;42.734;24.258;2022-07-11T07:22:17;91987.97;;;21.82;42.92
20628;BME280;10473;42.734;24.258;2022-07-11T07:24:48;91996.28;;;21.88;44.73
20628;BME280;10473;42.734;24.258;2022-07-11T07:27:16;91989.69;;;22.01;42.22
20628;BME280;10473;42.734;24.258;2022-07-11T07:29:44;91980.03;;;22.25;44.56
20628;BME280;10473;42.734;24.258;2022-07-11T07:32:11;91978.63;;;22.46;41.50
20628;BME280;10473;42.734;24.258;2022-07-11T07:34:39;91984.09;;;22.55;42.07
20628;BME280;10473;42.734;24.258;2022-07-11T07:37:07;91981.66;;;22.69;45.63
20628;BME280;10473;42.734;24.258;2022-07-11T07:39:35;91982.50;;;22.79;42.81
20628;BME280;10473;42.734;24.258;2022-07-11T07:42:05;91969.94;;;22.85;44.73
20628;BME280;10473;42.734;24.258;2022-07-11T07:44:33;91971.75;;;23.22;48.96
20628;BME280;10473;42.734;24.258;2022-07-11T07:47:01;91973.31;;;23.32;44.40
20628;BME280;10473;42.734;24.258;2022-07-11T07:49:29;91983.56;;;23.37;44.38
20628;BME280;10473;42.734;24.258;2022-07-11T07:51:56;91982.59;;;23.31;47.61
20628;BME280;10473;42.734;24.258;2022-07-11T07:54:24;91977.97;;;22.76;47.32
20628;BME280;10473;42.734;24.258;2022-07-11T07:56:52;91978.75;;;22.76;50.06
20628;BME280;10473;42.734;24.258;2022-07-11T07:59:21;91978.69;;;22.55;47.81
20628;BME280;10473;42.734;24.258;2022-07-11T08:01:51;91996.31;;;22.34;47.83
20628;BME280;10473;42.734;24.258;2022-07-11T08:04:18;91994.53;;;22.19;49.72
20628;BME280;10473;42.734;24.258;2022-07-11T08:06:46;91980.84;;;21.88;49.54
20628;BME280;10473;42.734;24.258;2022-07-11T08:09:14;91980.44;;;21.77;49.18
20628;BME280;10473;42.734;24.258;2022-07-11T08:11:42;91995.19;;;21.73;49.90
20628;BME280;10473;42.734;24.258;2022-07-11T08:14:09;91990.16;;;21.34;51.52
20628;BME280;10473;42.734;24.258;2022-07-11T08:16:38;91992.22;;;21.17;51.75
20628;BME280;10473;42.734;24.258;2022-07-11T08:19:07;91985.41;;;20.84;53.07
20628;BME280;10473;42.734;24.258;2022-07-11T08:21:36;91994.13;;;20.60;52.68
20628;BME280;10473;42.734;24.258;2022-07-11T08:24:04;91989.09;;;20.46;53.17
20628;BME280;10473;42.734;24.258;2022-07-11T08:26:32;91979.78;;;20.18;54.01
20628;BME280;10473;42.734;24.258;2022-07-11T08:29:00;91992.47;;;19.86;52.45
20628;BME280;10473;42.734;24.258;2022-07-11T08:31:28;91990.56;;;19.86;53.77
20628;BME280;10473;42.734;24.258;2022-07-11T08:33:57;91996.34;;;19.69;52.74
20628;BME280;10473;42.734;24.258;2022-07-11T08:36:25;91983.44;;;19.44;52.21
20628;BME280;10473;42.734;24.258;2022-07-11T08:38:54;91981.50;;;19.45;52.91
20628;BME280;10473;42.734;24.258;2022-07-11T08:41:22;91978.22;;;19.37;52.17
20628;BME280;10473;42.734;24.258;2022-07-11T08:43:49;91977.53;;;19.33;51.59
20628;BME280;10473;42.734;24.258;2022-07-11T08:46:19;91973.97;;;19.56;52.88
20628;BME280;10473;42.734;24.258;2022-07-11T08:48:47;91941.69;;;19.40;53.14
20628;BME280;10473;42.734;24.258;2022-07-11T08:51:17;91975.31;;;19.64;51.37
20628;BME280;10473;42.734;24.258;2022-07-11T08:53:46;91979.84;;;19.67;51.48
20628;BME280;10473;42.734;24.258;2022-07-11T08:56:14;91971.88;;;19.79;49.80
20628;BME280;10473;42.734;24.258;2022-07-11T08:58:44;91962.91;;;20.02;51.34
20628;BME280;10473;42.734;24.258;2022-07-11T09:01:15;91969.19;;;20.27;51.61
20628;BME280;10473;42.734;24.258;2022-07-11T09:03:44;91976.41;;;20.46;50.13
20628;BME280;10473;42.734;24.258;2022-07-11T09:06:12;91971.84;;;20.43;49.38
20628;BME280;10473;42.734;24.258;2022-07-11T09:08:41;91974.78;;;20.49;49.04
20628;BME280;10473;42.734;24.258;2022-07-11T09:11:09;91966.41;;;20.47;50.09
20628;BME280;10473;42.734;24.258;2022-07-11T09:13:37;91979.66;;;20.54;49.04
20628;BME280;10473;42.734;24.258;2022-07-11T09:16:07;91982.72;;;20.40;47.52
20628;BME280;10473;42.734;24.258;2022-07-11T09:18:36;91973.75;;;20.30;47.78
20628;BME280;10473;42.734;24.258;2022-07-11T09:21:06;91968.09;;;20.25;46.63
20628;BME280;10473;42.734;24.258;2022-07-11T09:23:54;91973.91;;;20.23;47.00
20628;BME280;10473;42.734;24.258;2022-07-11T09:26:41;91983.34;;;20.15;48.61
20628;BME280;10473;42.734;24.258;2022-07-11T09:29:11;91985.47;;;20.08;49.41
20628;BME280;10473;42.734;24.258;2022-07-11T09:31:42;91974.50;;;20.15;49.05
20628;BME280;10473;42.734;24.258;2022-07-11T09:34:12;91975.59;;;20.17;48.90
20628;BME280;10473;42.734;24.258;2022-07-11T09:36:42;91973.25;;;20.19;51.03
20628;BME280;10473;42.734;24.258;2022-07-11T09:39:15;91969.69;;;20.38;50.44
20628;BME280;10473;42.734;24.258;2022-07-11T09:41:45;91967.03;;;20.67;49.31
20628;BME280;10473;42.734;24.258;2022-07-11T09:44:19;91978.81;;;20.57;47.40
20628;BME280;10473;42.734;24.258;2022-07-11T09:46:50;91978.47;;;20.55;47.71
20628;BME280;10473;42.734;24.258;2022-07-11T09:49:29;91976.97;;;20.82;48.41
20628;BME280;10473;42.734;24.258;2022-07-11T09:52:07;91989.69;;;20.82;48.88
20628;BME280;10473;42.734;24.258;2022-07-11T09:54:52;91974.91;;;21.02;50.08
20628;BME280;10473;42.734;24.258;2022-07-11T09:57:28;91978.13;;;20.97;47.53
20628;BME280;10473;42.734;24.258;2022-07-11T09:59:56;91978.06;;;20.85;46.17
20628;BME280;10473;42.734;24.258;2022-07-11T10:02:26;91979.53;;;20.73;45.04
20628;BME280;10473;42.734;24.258;2022-07-11T10:04:54;91987.06;;;20.66;46.60
20628;BME280;10473;42.734;24.258;2022-07-11T10:07:22;91973.16;;;20.67;48.96
20628;BME280;10473;42.734;24.258;2022-07-11T10:09:51;91982.97;;;20.74;46.90
20628;BME280;10473;42.734;24.258;2022-07-11T10:12:19;91972.66;;;20.85;49.01
20628;BME280;10473;42.734;24.258;2022-07-11T10:14:48;91984.53;;;20.87;47.65
20628;BME280;10473;42.734;24.258;2022-07-11T10:17:23;91988.72;;;20.76;46.82
20628;BME280;10473;42.734;24.258;2022-07-11T10:19:59;91989.81;;;20.62;46.21
20628;BME280;10473;42.734;24.258;2022-07-11T10:22:34;91986.03;;;20.60;46.49
20628;BME280;10473;42.734;24.258;2022-07-11T10:25:14;91990.00;;;20.55;45.95
20628;BME280;10473;42.734;24.258;2022-07-11T10:27:57;91992.72;;;20.55;46.52
20628;BME280;10473;42.734;24.258;2022-07-11T10:30:47;91991.06;;;20.74;46.82
20628;BME280;10473;42.734;24.258;2022-07-11T10:33:15;91987.91;;;20.91;46.70
20628;BME280;10473;42.734;24.258;2022-07-11T10:35:44;91981.38;;;21.05;48.01
20628;BME280;10473;42.734;24.258;2022-07-11T10:38:13;91980.22;;;21.18;46.70
20628;BME280;10473;42.734;24.258;2022-07-11T10:40:45;91987.91;;;21.32;46.68
20628;BME280;10473;42.734;24.258;2022-07-11T10:43:15;91991.94;;;20.99;44.49
20628;BME280;10473;42.734;24.258;2022-07-11T10:45:53;91994.75;;;21.08;47.47
20628;BME280;10473;42.734;24.258;2022-07-11T10:48:22;91999.59;;;21.01;43.92
20628;BME280;10473;42.734;24.258;2022-07-11T10:50:54;91997.22;;;21.03;45.33
20628;BME280;10473;42.734;24.258;2022-07-11T10:53:31;91990.75;;;21.00;44.46
20628;BME280;10473;42.734;24.258;2022-07-11T10:56:13;91985.13;;;20.95;46.19
20628;BME280;10473;42.734;24.258;2022-07-11T10:58:42;92000.53;;;20.94;45.71
20628;BME280;10473;42.734;24.258;2022-07-11T11:01:12;91999.91;;;21.03;44.54
20628;BME280;10473;42.734;24.258;2022-07-11T11:03:41;91996.97;;;21.26;45.90
20628;BME280;10473;42.734;24.258;2022-07-11T11:06:09;91993.75;;;21.43;42.09
20628;BME280;10473;42.734;24.258;2022-07-11T11:08:44;92000.53;;;21.48;40.48
20628;BME280;10473;42.734;24.258;2022-07-11T11:11:36;92012.44;;;21.63;42.08
20628;BME280;10473;42.734;24.258;2022-07-11T11:14:18;92012.81;;;21.77;43.88
20628;BME280;10473;42.734;24.258;2022-07-11T11:16:46;92005.25;;;21.97;43.56
20628;BME280;10473;42.734;24.258;2022-07-11T11:19:52;92011.59;;;22.16;41.33
20628;BME280;10473;42.734;24.258;2022-07-11T11:22:23;92007.69;;;22.17;41.50
20628;BME280;10473;42.734;24.258;2022-07-11T11:24:53;92019.44;;;22.35;39.24
20628;BME280;10473;42.734;24.258;2022-07-11T11:27:23;92026.78;;;22.35;40.62
20628;BME280;10473;42.734;24.258;2022-07-11T11:29:53;92027.75;;;22.41;43.03
20628;BME280;10473;42.734;24.258;2022-07-11T11:32:22;92013.72;;;22.33;43.12
20628;BME280;10473;42.734;24.258;2022-07-11T11:34:56;92011.34;;;22.23;41.56
20628;BME280;10473;42.734;24.258;2022-07-11T11:37:24;92002.69;;;22.28;45.14
20628;BME280;10473;42.734;24.258;2022-07-11T11:39:57;92020.84;;;22.40;42.93
20628;BME280;10473;42.734;24.258;2022-07-11T11:42:28;92019.47;;;22.48;41.50
20628;BME280;10473;42.734;24.258;2022-07-11T11:44:58;92002.19;;;22.45;39.94
20628;BME280;10473;42.734;24.258;2022-07-11T11:47:29;92014.13;;;22.57;37.12
20628;BME280;10473;42.734;24.258;2022-07-11T11:49:57;92015.75;;;22.54;37.23
20628;BME280;10473;42.734;24.258;2022-07-11T11:52:27;92027.44;;;22.39;37.05
20628;BME280;10473;42.734;24.258;2022-07-11T11:54:56;92027.56;;;22.23;38.40
20628;BME280;10473;42.734;24.258;2022-07-11T11:57:26;92044.84;;;22.13;39.79
20628;BME280;10473;42.734;24.258;2022-07-11T11:59:56;92035.78;;;21.82;42.17
20628;BME280;10473;42.734;24.258;2022-07-11T12:02:25;92029.97;;;21.96;43.24
20628;BME280;10473;42.734;24.258;2022-07-11T12:04:53;92039.97;;;22.08;42.57
20628;BME280;10473;42.734;24.258;2022-07-11T12:07:22;92038.03;;;22.21;42.48
20628;BME280;10473;42.734;24.258;2022-07-11T12:09:51;92028.31;;;22.36;42.45
20628;BME280;10473;42.734;24.258;2022-07-11T12:12:23;92037.88;;;22.62;42.53
20628;BME280;10473;42.734;24.258;2022-07-11T12:15:29;92036.31;;;22.86;39.49
20628;BME280;10473;42.734;24.258;2022-07-11T12:17:59;92033.13;;;23.00;42.11
20628;BME280;10473;42.734;24.258;2022-07-11T12:20:40;92047.56;;;23.18;41.10
20628;BME280;10473;42.734;24.258;2022-07-11T12:23:10;92041.16;;;23.25;36.93
20628;BME280;10473;42.734;24.258;2022-07-11T12:25:38;92046.63;;;23.34;40.26
20628;BME280;10473;42.734;24.258;2022-07-11T12:28:12;92030.09;;;23.32;38.20
20628;BME280;10473;42.734;24.258;2022-07-11T12:30:42;92040.66;;;23.39;37.51
20628;BME280;10473;42.734;24.258;2022-07-11T12:33:11;92039.72;;;23.33;38.00
20628;BME280;10473;42.734;24.258;2022-07-11T12:35:53;92044.56;;;23.38;40.99
20628;BME280;10473;42.734;24.258;2022-07-11T12:38:21;92041.22;;;23.34;38.70
20628;BME280;10473;42.734;24.258;2022-07-11T12:41:03;92033.81;;;23.47;39.50
20628;BME280;10473;42.734;24.258;2022-07-11T12:43:39;92035.97;;;23.61;40.08
20628;BME280;10473;42.734;24.258;2022-07-11T12:46:28;92032.75;;;23.75;39.70
20628;BME280;10473;42.734;24.258;2022-07-11T12:49:00;92027.53;;;23.80;42.19
20628;BME280;10473;42.734;24.258;2022-07-11T12:51:30;92035.81;;;23.86;36.80
20628;BME280;10473;42.734;24.258;2022-07-11T12:54:00;92037.41;;;23.96;38.48
20628;BME280;10473;42.734;24.258;2022-07-11T12:56:28;92038.59;;;23.95;39.22
20628;BME280;10473;42.734;24.258;2022-07-11T12:58:56;92039.53;;;24.01;39.08
20628;BME280;10473;42.734;24.258;2022-07-11T13:01:25;92037.75;;;24.07;36.76
20628;BME280;10473;42.734;24.258;2022-07-11T13:03:53;92037.41;;;23.96;37.12